Time;durP1;ratioP1;P1;durP2;ratioP2;P2;SDS_P1;SDS_P2;PMS_P1;PMS_P2;Temp;Humidity;BMP_temperature;BMP_pressure;BME280_temperature;BME280_humidity;BME280_pressure;Samples;Min_cycle;Max_cycle;Signal;HPM_P1;HPM_P2
2023/08/10 00:08:37;;;;;;;2.20;0.70;;;;;;;;;;20815013;28;20223;-72
2023/08/10 00:18:40;;;;;;;1.93;0.67;;;;;;;;;;20825330;28;20232;-72
2023/08/10 00:28:41;;;;;;;1.00;0.57;;;;;;;;;;20819194;28;20271;-72
2023/08/10 00:38:43;;;;;;;0.53;0.50;;;;;;;;;;20864229;28;20228;-72
2023/08/10 00:48:46;;;;;;;0.57;0.40;;;;;;;;;;20821274;28;20218;-72
2023/08/10 00:58:49;;;;;;;1.17;0.60;;;;;;;;;;20812892;28;20249;-75
2023/08/10 01:09:22;;;;;;;0.73;0.53;;;18.40;99.90;;;;;;20813438;28;20273;-72
2023/08/10 01:19:38;;;;;;;0.67;0.60;;;;;;;;;;20830262;28;20234;-74
2023/08/10 01:29:41;;;;;;;1.70;0.60;;;;;;;;;;20839726;28;20221;-74
2023/08/10 01:39:43;;;;;;;2.10;0.63;;;;;;;;;;20852568;28;20219;-74
2023/08/10 01:49:45;;;;;;;0.70;0.40;;;;;;;;;;20831525;28;20763;-74
2023/08/10 01:59:47;;;;;;;0.63;0.43;;;;;;;;;;20878340;22;20232;-74
2023/08/10 02:09:49;;;;;;;0.97;0.50;;;;;;;;;;20935290;28;20237;-75
2023/08/10 02:19:50;;;;;;;1.33;0.50;;;;;;;;;;20935348;28;20597;-74
2023/08/10 02:29:52;;;;;;;2.20;0.50;;;;;;;;;;20937187;28;20731;-74
2023/08/10 02:39:54;;;;;;;1.07;0.60;;;;;;;;;;20950980;28;20338;-74
2023/08/10 02:49:56;;;;;;;0.90;0.50;;;;;;;;;;20933480;28;20213;-75
2023/08/10 02:59:58;;;;;;;1.20;0.50;;;;;;;;;;20933170;28;20270;-74
2023/08/10 03:10:01;;;;;;;0.90;0.60;;;;;;;;;;20965638;28;20209;-74
2023/08/10 03:20:12;;;;;;;0.67;0.43;;;;;;;;;;20920265;28;20221;-74
2023/08/10 03:30:14;;;;;;;1.17;0.67;;;;;;;;;;20970367;28;20636;-74
2023/08/10 03:40:17;;;;;;;1.73;0.60;;;;;;;;;;20971158;28;20753;-74
2023/08/10 03:50:19;;;;;;;2.47;0.83;;;;;;;;;;20930431;28;20240;-75
2023/08/10 04:00:22;;;;;;;1.37;0.80;;;;;;;;;;20929407;28;20217;-75
2023/08/10 04:10:24;;;;;;;1.77;0.70;;;;;;;;;;20961553;28;20209;-75
2023/08/10 04:20:27;;;;;;;1.40;0.73;;;;;;;;;;20937453;28;20267;-74
2023/08/10 04:30:29;;;;;;;2.67;0.90;;;;;;;;;;20931977;28;20221;-75
2023/08/10 04:40:31;;;;;;;3.33;0.83;;;;;;;;;;20975263;28;20221;-75
2023/08/10 04:50:33;;;;;;;1.77;0.80;;;;;;;;;;20942087;28;20213;-75
2023/08/10 05:00:34;;;;;;;0.87;0.60;;;;;;;;;;20924391;28;20225;-75
2023/08/10 05:10:36;;;;;;;0.90;0.60;;;;;;;;;;20919723;28;20238;-75
2023/08/10 05:20:38;;;;;;;1.37;0.80;;;;;;;;;;20918023;28;20270;-75
2023/08/10 05:30:40;;;;;;;0.87;0.60;;;;;;;;;;20928112;28;20213;-75
2023/08/10 05:40:42;;;;;;;1.80;1.00;;;;;;;;;;20987327;28;20233;-75
2023/08/10 05:50:44;;;;;;;2.63;1.10;;;;;;;;;;20921263;28;20216;-74
2023/08/10 06:00:46;;;;;;;5.40;0.80;;;;;;;;;;20920697;28;20217;-75
2023/08/10 06:10:50;;;;;;;3.53;1.10;;;;;;;;;;20920013;28;20220;-75
2023/08/10 06:20:52;;;;;;;1.40;0.80;;;;;;;;;;20919530;28;20282;-75
2023/08/10 06:30:54;;;;;;;3.20;1.00;;;;;;;;;;20945251;28;20674;-74
2023/08/10 06:40:56;;;;;;;0.90;0.70;;;;;;;;;;20934242;28;20282;-74
2023/08/10 06:50:58;;;;;;;2.27;1.00;;;;;;;;;;20917927;28;20558;-74
2023/08/10 07:01:01;;;;;;;1.10;0.80;;;;;;;;;;20966180;28;20362;-74
2023/08/10 07:11:03;;;;;;;2.23;0.80;;;;;;;;;;20965771;28;20221;-74
2023/08/10 07:21:06;;;;;;;1.40;0.90;;;;;;;;;;20965413;28;20374;-75
2023/08/10 07:31:08;;;;;;;1.30;0.83;;;;;;;;;;20986162;28;20209;-74
2023/08/10 07:41:10;;;;;;;0.80;0.60;;;;;;;;;;20947618;28;20270;-74
2023/08/10 07:51:12;;;;;;;1.70;0.70;;;;;;;;;;20947001;28;20217;-74
2023/08/10 08:01:14;;;;;;;1.30;0.67;;;;;;;;;;21021343;22;20219;-75
2023/08/10 08:11:16;;;;;;;2.00;0.50;;;;;;;;;;21088973;28;20239;-75
2023/08/10 08:21:18;;;;;;;1.53;0.73;;;;;;;;;;21059541;28;20229;-75
2023/08/10 08:31:20;;;;;;;1.23;0.57;;;;;;;;;;21026215;28;20208;-75
2023/08/10 08:41:23;;;;;;;0.70;0.50;;;;;;;;;;20991433;28;20259;-76
2023/08/10 08:51:25;;;;;;;0.90;0.60;;;;;;;;;;20960136;28;20211;-76
2023/08/10 09:01:27;;;;;;;1.43;0.63;;;;;;;;;;20996060;28;20216;-76
2023/08/10 09:11:28;;;;;;;1.80;0.70;;;;;;;;;;20990368;28;20258;-75
2023/08/10 09:21:31;;;;;;;0.80;0.60;;;;;;;;;;21044034;28;20260;-76
2023/08/10 09:31:33;;;;;;;1.17;0.57;;;;;;;;;;21029567;28;20214;-75
2023/08/10 09:41:36;;;;;;;2.27;0.80;;;;;;;;;;21028861;28;20218;-76
2023/08/10 09:51:38;;;;;;;3.07;0.80;;;;;;;;;;21035440;28;20219;-76
2023/08/10 10:01:40;;;;;;;1.50;0.60;;;;;;;;;;20983919;28;20218;-76
2023/08/10 10:11:44;;;;;;;1.27;0.80;;;22.60;99.90;;;;;;21021669;28;20210;-77
2023/08/10 10:21:47;;;;;;;3.08;0.82;;;22.90;99.90;;;;;;21030309;28;20210;-76
2023/08/10 10:31:49;;;;;;;1.27;0.67;;;;;;;;;;20983513;28;20671;-76
2023/08/10 10:41:51;;;;;;;0.82;0.65;;;23.40;99.90;;;;;;20973840;28;20288;-77
2023/08/10 10:51:58;;;;;;;0.50;0.40;;;23.40;99.90;;;;;;21048350;28;20220;-76
2023/08/10 11:02:02;;;;;;;0.90;0.50;;;;;;;;;;21014631;28;20271;-77
2023/08/10 11:12:04;;;;;;;1.13;0.60;;;;;;;;;;21045353;28;20219;-77
2023/08/10 11:22:07;;;;;;;0.70;0.50;;;;;;;;;;21022698;28;20221;-77
2023/08/10 11:32:09;;;;;;;0.30;0.30;;;;;;;;;;21011530;28;20306;-76
2023/08/10 11:42:11;;;;;;;0.80;0.50;;;;;;;;;;21005189;28;20736;-76
2023/08/10 11:52:14;;;;;;;0.88;0.55;;;;;;;;;;21038315;28;20584;-76
2023/08/10 12:02:18;;;;;;;1.08;0.68;;;;;;;;;;20996272;28;20219;-78
2023/08/10 12:12:20;;;;;;;0.90;0.50;;;;;;;;;;21014532;28;20225;-76
2023/08/10 12:22:22;;;;;;;0.60;0.50;;;;;;;;;;21008799;28;20229;-77
2023/08/10 12:32:24;;;;;;;0.50;0.40;;;;;;;;;;21031599;28;20580;-76
2023/08/10 12:42:25;;;;;;;1.30;0.45;;;;;;;;;;21030589;28;20705;-75
2023/08/10 12:52:28;;;;;;;0.60;0.30;;;;;;;;;;21017028;28;20277;-76
2023/08/10 13:02:30;;;;;;;0.43;0.32;;;;;;;;;;20997942;28;20254;-76
2023/08/10 13:12:32;;;;;;;0.77;0.50;;;;;;;;;;20978913;28;20203;-76
2023/08/10 13:22:35;;;;;;;1.00;0.77;;;;;;;;;;20997067;28;20211;-77
2023/08/10 13:32:37;;;;;;;0.88;0.50;;;;;;;;;;21060591;28;20241;-77
2023/08/10 13:42:38;;;;;;;0.85;0.60;;;;;;;;;;21004256;28;20588;-76
2023/08/10 13:52:40;;;;;;;0.63;0.50;;;;;;;;;;21012653;28;20220;-76
2023/08/10 14:02:42;;;;;;;0.88;0.45;;;;;;;;;;21022671;22;20228;-66
2023/08/10 14:12:44;;;;;;;1.00;0.50;;;;;;;;;;20944949;28;20283;-67
2023/08/10 14:22:46;;;;;;;0.70;0.50;;;;;;;;;;20950828;28;20239;-67
2023/08/10 14:32:49;;;;;;;1.02;0.50;;;;;;;;;;20915198;28;20221;-66
2023/08/10 14:42:50;;;;;;;1.42;0.55;;;;;;;;;;20899812;28;20227;-66
2023/08/10 14:52:52;;;;;;;1.35;0.70;;;;;;;;;;20933332;28;20208;-67
2023/08/10 15:02:54;;;;;;;0.82;0.40;;;;;;;;;;20890531;28;20652;-67
2023/08/10 15:12:56;;;;;;;1.75;0.70;;;;;;;;;;20932740;28;20281;-67
2023/08/10 15:22:58;;;;;;;2.00;0.60;;;;;;;;;;20930809;28;20248;-67
2023/08/10 15:32:59;;;;;;;1.10;0.60;;;;;;;;;;20943047;28;20270;-66
2023/08/10 15:43:01;;;;;;;1.02;0.50;;;;;;;;;;20902644;28;20219;-66
2023/08/10 15:53:03;;;;;;;1.25;0.70;;;;;;;;;;20945661;28;20212;-67
2023/08/10 16:03:05;;;;;;;0.80;0.50;;;;;;;;;;20945124;28;20284;-67
2023/08/10 16:13:07;;;;;;;1.05;0.60;;;;;;;;;;20944674;28;20249;-67
2023/08/10 16:23:09;;;;;;;0.77;0.50;;;;;;;;;;20976554;28;20695;-67
2023/08/10 16:33:11;;;;;;;0.70;0.40;;;;;;;;;;20939342;28;20217;-67
2023/08/10 16:43:13;;;;;;;0.85;0.60;;;;;;;;;;20941869;28;20284;-66
2023/08/10 16:53:15;;;;;;;1.70;0.60;;;;;;;;;;20910021;28;20572;-66
2023/08/10 17:03:16;;;;;;;1.63;0.50;;;;;;;;;;20957043;28;20284;-66
2023/08/10 17:13:18;;;;;;;2.97;0.60;;;;;;;;;;20940193;28;20217;-66
2023/08/10 17:23:20;;;;;;;1.45;0.60;;;;;;;;;;20867456;28;20231;-66
2023/08/10 17:33:22;;;;;;;1.33;0.68;;;;;;;;;;20959988;28;20216;-67
2023/08/10 17:43:24;;;;;;;1.23;0.70;;;;;;;;;;20893800;28;20270;-66
2023/08/10 17:53:26;;;;;;;1.38;0.70;;;;;;;;;;20936605;28;20217;-66
2023/08/10 18:03:28;;;;;;;1.38;0.50;;;;;;;;;;20929913;28;20223;-66
2023/08/10 18:13:29;;;;;;;1.00;0.65;;;;;;;;;;20944632;28;20208;-66
2023/08/10 18:23:33;;;;;;;0.95;0.60;;;25.50;99.90;;;;;;20934325;28;20227;-66
2023/08/10 18:33:36;;;;;;;0.93;0.80;;;25.50;99.90;;;;;;20939732;28;20232;-67
2023/08/10 18:43:38;;;;;;;1.60;0.88;;;;;;;;;;20922575;28;20258;-67
2023/08/10 18:53:40;;;;;;;2.85;1.10;;;;;;;;;;20933374;28;20211;-67
2023/08/10 19:03:42;;;;;;;2.58;0.82;;;;;;;;;;20948236;28;20590;-68
2023/08/10 19:13:45;;;;;;;5.35;1.00;;;;;;;;;;20929157;28;20263;-67
2023/08/10 19:23:48;;;;;;;1.58;0.75;;;;;;;;;;20948387;28;20231;-67
2023/08/10 19:33:50;;;;;;;1.42;1.00;;;;;;;;;;20920645;28;20274;-67
2023/08/10 19:43:52;;;;;;;1.52;0.90;;;;;;;;;;20945700;28;20334;-67
2023/08/10 19:53:54;;;;;;;2.60;0.75;;;;;;;;;;20915213;28;20692;-67
2023/08/10 20:03:56;;;;;;;2.45;1.05;;;;;;;;;;20961624;22;20233;-76
2023/08/10 20:13:58;;;;;;;1.92;0.80;;;;;;;;;;20994291;28;20227;-77
2023/08/10 20:23:59;;;;;;;1.65;0.80;;;;;;;;;;20991139;28;20231;-77
2023/08/10 20:34:01;;;;;;;2.00;0.68;;;;;;;;;;20990765;28;20208;-77
2023/08/10 20:44:03;;;;;;;1.10;0.60;;;;;;;;;;20990139;28;20686;-76
2023/08/10 20:54:06;;;;;;;1.73;0.93;;;;;;;;;;20991058;28;20273;-77
2023/08/10 21:04:08;;;;;;;2.22;1.00;;;;;;;;;;20989988;28;20239;-76
2023/08/10 21:14:09;;;;;;;3.15;0.82;;;;;;;;;;20988111;28;20217;-76
2023/08/10 21:24:11;;;;;;;1.60;0.80;;;;;;;;;;20970565;28;20267;-77
2023/08/10 21:34:13;;;;;;;2.22;0.85;;;;;;;;;;20987597;28;20234;-77
2023/08/10 21:44:14;;;;;;;1.20;0.80;;;;;;;;;;20986214;28;20218;-77
2023/08/10 21:54:16;;;;;;;0.85;0.63;;;;;;;;;;20986384;28;20205;-77
2023/08/10 22:04:18;;;;;;;1.48;0.90;;;;;;;;;;20984570;28;20652;-77
2023/08/10 22:14:19;;;;;;;4.25;0.75;;;;;;;;;;20984233;28;20215;-76
2023/08/10 22:24:21;;;;;;;1.42;0.63;;;;;;;;;;20983114;28;20225;-76
2023/08/10 22:34:23;;;;;;;1.40;0.90;;;;;;;;;;20982732;28;20220;-76
2023/08/10 22:44:25;;;;;;;1.77;0.77;;;;;;;;;;20983299;28;20268;-76
2023/08/10 22:54:27;;;;;;;3.53;2.33;;;;;;;;;;20964354;28;20277;-76
2023/08/10 23:04:28;;;;;;;7.47;4.88;;;;;;;;;;20981757;28;20249;-77
2023/08/10 23:14:30;;;;;;;1.48;0.88;;;;;;;;;;20981339;28;20204;-77
2023/08/10 23:24:32;;;;;;;5.05;1.30;;;;;;;;;;20979203;28;20253;-76
2023/08/10 23:34:34;;;;;;;1.85;0.93;;;;;;;;;;20979506;28;20709;-76
2023/08/10 23:44:35;;;;;;;1.40;0.80;;;;;;;;;;20994869;28;20636;-76
2023/08/10 23:54:37;;;;;;;1.95;0.98;;;;;;;;;;20961113;28;20213;-76
